createdAt,value
2023-02-23T00:00:50.783Z,42.67
2023-02-23T00:05:55.882Z,42.74
2023-02-23T00:11:01.670Z,43.19
2023-02-23T00:16:22.039Z,41.97
2023-02-23T00:21:34.274Z,42.64
2023-02-23T00:26:41.162Z,42.21
2023-02-23T00:31:47.820Z,41.99
2023-02-23T00:36:56.729Z,40.91
2023-02-23T00:42:04.505Z,41.12
2023-02-23T00:47:10.968Z,41.37
2023-02-23T00:52:16.246Z,41.05
2023-02-23T00:57:21.297Z,40.93
2023-02-23T01:02:27.084Z,40.83
2023-02-23T01:07:32.921Z,41.16
2023-02-23T01:12:39.000Z,40.58
2023-02-23T01:17:44.502Z,40.51
2023-02-23T01:22:52.906Z,40.34
2023-02-23T01:27:58.412Z,40.18
2023-02-23T01:33:04.169Z,40.45
2023-02-23T01:38:09.311Z,39.96
2023-02-23T01:43:17.020Z,39.44
2023-02-23T01:48:25.718Z,40.03
2023-02-23T01:53:37.447Z,39.22
2023-02-23T01:58:46.998Z,39.36
2023-02-23T02:04:08.596Z,39.56
2023-02-23T02:09:18.953Z,39.17
2023-02-23T02:14:31.999Z,39.13
2023-02-23T02:20:15.949Z,38.97
2023-02-23T02:25:31.886Z,38.85
2023-02-23T02:31:08.510Z,38.79
2023-02-23T02:37:00.361Z,38.83
2023-02-23T02:42:24.899Z,38.64
2023-02-23T02:47:56.025Z,38.56
2023-02-23T02:53:09.856Z,38.40
2023-02-23T02:58:19.419Z,38.49
2023-02-23T03:04:08.027Z,38.17
2023-02-23T03:09:52.247Z,38.03
2023-02-23T03:15:38.496Z,37.98
2023-02-23T03:21:18.667Z,37.93
2023-02-23T03:26:44.684Z,38.11
2023-02-23T03:32:32.871Z,37.72
2023-02-23T03:38:05.875Z,37.90
2023-02-23T03:43:31.903Z,37.55
2023-02-23T03:48:58.787Z,37.50
2023-02-23T03:54:53.745Z,37.88
2023-02-23T04:00:24.841Z,37.51
2023-02-23T04:05:51.182Z,36.29
2023-02-23T04:11:34.622Z,37.39
2023-02-23T04:16:41.633Z,37.50
2023-02-23T04:21:46.715Z,36.92
2023-02-23T04:26:51.902Z,35.94
2023-02-23T04:31:57.069Z,36.11
2023-02-23T04:37:02.198Z,36.79
2023-02-23T04:42:07.419Z,36.43
2023-02-23T04:47:13.252Z,36.21
2023-02-23T04:52:19.533Z,36.87
2023-02-23T04:57:24.877Z,36.43
2023-02-23T05:02:30.101Z,35.82
2023-02-23T05:07:35.745Z,35.76
2023-02-23T05:12:41.057Z,36.35
2023-02-23T05:17:46.353Z,35.63
2023-02-23T05:22:51.632Z,35.51
2023-02-23T05:27:56.774Z,35.77
2023-02-23T05:33:03.091Z,36.47
2023-02-23T05:38:08.291Z,36.09
2023-02-23T05:43:13.453Z,35.15
2023-02-23T05:48:19.666Z,35.46
2023-02-23T05:53:25.186Z,35.95
2023-02-23T05:58:30.416Z,36.01
2023-02-23T06:03:35.666Z,36.02
2023-02-23T06:08:42.376Z,34.82
2023-02-23T06:13:47.611Z,35.01
2023-02-23T06:18:52.768Z,34.65
2023-02-23T06:24:01.814Z,35.31
2023-02-23T06:29:06.860Z,35.10
2023-02-23T06:34:12.799Z,34.22
2023-02-23T06:39:18.000Z,33.43
2023-02-23T06:44:23.995Z,34.33
2023-02-23T06:49:29.104Z,34.90
2023-02-23T06:54:35.587Z,34.58
2023-02-23T06:59:40.858Z,34.78
2023-02-23T07:04:46.086Z,35.00
2023-02-23T07:09:51.407Z,33.85
2023-02-23T07:14:56.464Z,34.64
2023-02-23T07:20:02.023Z,34.10
2023-02-23T07:25:08.656Z,34.76
2023-02-23T07:30:13.586Z,33.58
2023-02-23T07:35:19.039Z,32.99
2023-02-23T07:40:24.462Z,34.78
2023-02-23T07:45:29.808Z,33.21
2023-02-23T07:50:35.095Z,34.33
2023-02-23T07:55:41.416Z,35.07
2023-02-23T08:00:46.621Z,34.61
2023-02-23T08:05:52.024Z,33.82
2023-02-23T08:11:07.114Z,34.61
2023-02-23T08:16:13.794Z,34.90
2023-02-23T08:21:19.413Z,33.92
2023-02-23T08:26:26.547Z,34.33
2023-02-23T08:31:32.260Z,34.54
2023-02-23T08:36:37.165Z,34.06
2023-02-23T08:41:42.687Z,34.18
2023-02-23T08:46:47.937Z,34.55
2023-02-23T08:51:53.846Z,34.32
2023-02-23T08:56:59.643Z,34.66
2023-02-23T09:02:04.979Z,34.30
2023-02-23T09:07:12.961Z,34.64
2023-02-23T09:12:18.081Z,34.29
2023-02-23T09:17:24.304Z,34.45
2023-02-23T09:22:29.354Z,34.54
2023-02-23T09:27:36.020Z,34.54
2023-02-23T09:32:41.191Z,34.58
2023-02-23T09:37:57.851Z,34.62
2023-02-23T09:43:08.714Z,34.56
2023-02-23T09:48:33.023Z,34.47
2023-02-23T09:53:45.188Z,34.74
2023-02-23T09:58:51.636Z,34.30
2023-02-23T10:03:56.280Z,34.78
2023-02-23T10:09:23.827Z,34.45
2023-02-23T10:14:44.226Z,34.56
2023-02-23T10:20:00.906Z,34.62
2023-02-23T10:25:15.096Z,35.01
2023-02-23T10:30:42.379Z,34.98
2023-02-23T10:35:48.328Z,34.94
2023-02-23T10:40:57.514Z,35.25
2023-02-23T10:46:03.385Z,35.01
2023-02-23T10:51:16.114Z,35.00
2023-02-23T10:56:24.402Z,35.75
2023-02-23T11:02:01.896Z,35.11
2023-02-23T11:07:09.354Z,35.15
2023-02-23T11:12:37.449Z,35.50
2023-02-23T11:17:42.711Z,35.29
2023-02-23T11:22:49.103Z,35.56
2023-02-23T11:27:58.362Z,35.96
2023-02-23T11:33:11.912Z,36.02
2023-02-23T11:38:18.013Z,36.04
2023-02-23T11:43:23.903Z,35.88
2023-02-23T11:48:40.097Z,36.05
2023-02-23T11:53:48.764Z,36.55
2023-02-23T11:59:11.988Z,36.27
2023-02-23T12:04:34.936Z,36.59
2023-02-23T12:09:40.137Z,36.16
2023-02-23T12:15:16.900Z,36.66
2023-02-23T12:20:31.685Z,36.34
2023-02-23T12:25:54.366Z,37.51
2023-02-23T12:31:22.167Z,36.76
2023-02-23T12:36:39.897Z,36.75
2023-02-23T12:41:58.103Z,37.43
2023-02-23T12:47:26.332Z,37.43
2023-02-23T12:52:40.452Z,38.15
2023-02-23T12:58:04.137Z,38.20
2023-02-23T13:03:27.307Z,38.32
2023-02-23T13:08:48.283Z,37.95
2023-02-23T13:14:22.469Z,37.76
2023-02-23T13:19:36.042Z,38.24
2023-02-23T13:24:45.583Z,38.76
2023-02-23T13:29:57.282Z,38.55
2023-02-23T13:35:05.608Z,37.75
2023-02-23T13:40:19.024Z,38.89
2023-02-23T13:45:24.468Z,37.86
2023-02-23T13:50:34.635Z,38.33
2023-02-23T13:55:51.056Z,38.01
2023-02-23T14:01:18.508Z,37.93
2023-02-23T14:06:28.299Z,37.83
2023-02-23T14:11:52.209Z,38.37
2023-02-23T14:17:12.273Z,38.51
2023-02-23T14:22:23.516Z,38.90
2023-02-23T14:27:46.409Z,39.03
2023-02-23T14:32:52.443Z,39.96
2023-02-23T14:38:21.185Z,39.37
2023-02-23T14:43:44.534Z,39.19
2023-02-23T14:49:11.540Z,38.86
2023-02-23T14:54:28.404Z,38.30
2023-02-23T14:59:44.279Z,38.88
2023-02-23T15:04:49.711Z,39.22
2023-02-23T15:09:58.756Z,38.80
2023-02-23T15:15:18.778Z,39.44
2023-02-23T15:20:30.075Z,40.04
2023-02-23T15:25:40.838Z,39.65
2023-02-23T15:30:49.350Z,40.31
2023-02-23T15:36:02.764Z,39.82
2023-02-23T15:41:16.647Z,40.44
2023-02-23T15:46:28.643Z,40.23
2023-02-23T15:51:51.350Z,39.87
2023-02-23T15:57:05.656Z,39.11
2023-02-23T16:02:20.784Z,39.76
2023-02-23T16:07:30.140Z,39.28
2023-02-23T16:12:40.663Z,39.34
2023-02-23T16:17:49.082Z,39.39
2023-02-23T16:22:57.079Z,39.81
2023-02-23T16:28:11.498Z,40.79
2023-02-23T16:33:49.821Z,40.57
2023-02-23T16:39:03.234Z,40.58
2023-02-23T16:44:14.097Z,40.12
2023-02-23T16:49:19.620Z,41.38
2023-02-23T16:54:24.894Z,40.34
2023-02-23T16:59:31.652Z,39.99
2023-02-23T17:04:36.969Z,39.45
2023-02-23T17:09:42.192Z,39.63
2023-02-23T17:14:47.471Z,39.73
2023-02-23T17:19:52.741Z,39.15
2023-02-23T17:24:58.160Z,39.64
2023-02-23T17:30:03.446Z,39.43
2023-02-23T17:35:09.440Z,40.03
2023-02-23T17:40:20.064Z,40.18
2023-02-23T17:45:26.075Z,39.85
2023-02-23T17:50:31.305Z,40.34
2023-02-23T17:55:36.352Z,39.39
2023-02-23T18:00:41.451Z,39.22
2023-02-23T18:05:49.397Z,38.74
2023-02-23T18:10:56.097Z,38.69
2023-02-23T18:16:09.632Z,38.57
2023-02-23T18:21:21.084Z,39.09
2023-02-23T18:26:26.607Z,39.35
2023-02-23T18:31:32.042Z,40.30
2023-02-23T18:36:39.499Z,40.31
2023-02-23T18:41:44.944Z,40.36
2023-02-23T18:46:50.610Z,41.12
2023-02-23T18:51:56.001Z,41.93
2023-02-23T18:57:01.137Z,41.72
2023-02-23T19:02:07.288Z,41.43
2023-02-23T19:07:12.547Z,40.99
2023-02-23T19:12:17.740Z,40.86
2023-02-23T19:17:23.060Z,41.67
2023-02-23T19:22:29.773Z,40.86
2023-02-23T19:27:35.782Z,40.61
2023-02-23T19:32:41.069Z,41.21
2023-02-23T19:37:54.176Z,40.93
2023-02-23T19:42:59.469Z,42.65
2023-02-23T19:48:05.007Z,41.48
2023-02-23T19:53:10.338Z,41.33
2023-02-23T19:58:16.025Z,40.44
2023-02-23T20:03:27.603Z,41.35
2023-02-23T20:08:32.931Z,40.55
2023-02-23T20:13:40.256Z,41.08
2023-02-23T20:18:46.021Z,40.22
2023-02-23T20:23:52.414Z,39.54
2023-02-23T20:28:59.340Z,39.50
2023-02-23T20:34:08.901Z,39.27
2023-02-23T20:39:18.047Z,39.08
2023-02-23T20:44:26.171Z,39.07
2023-02-23T20:49:31.328Z,39.83
2023-02-23T20:54:37.941Z,39.09
2023-02-23T20:59:44.403Z,39.04
2023-02-23T21:04:49.510Z,39.77
2023-02-23T21:10:01.277Z,38.61
2023-02-23T21:15:07.305Z,38.65
2023-02-23T21:20:15.555Z,38.48
2023-02-23T21:25:22.937Z,38.69
2023-02-23T21:30:29.714Z,38.99
2023-02-23T21:35:36.520Z,39.77
2023-02-23T21:40:43.472Z,39.51
2023-02-23T21:45:48.782Z,39.96
2023-02-23T21:50:53.816Z,39.47
2023-02-23T21:55:58.964Z,41.22
2023-02-23T22:01:15.068Z,38.82
2023-02-23T22:06:22.554Z,38.13
2023-02-23T22:11:29.976Z,38.71
2023-02-23T22:16:37.469Z,38.41
2023-02-23T22:21:44.082Z,37.92
2023-02-23T22:26:55.704Z,37.50
2023-02-23T22:32:01.021Z,37.57
2023-02-23T22:37:06.129Z,37.83
2023-02-23T22:42:13.908Z,38.10
2023-02-23T22:47:18.960Z,37.81
2023-02-23T22:52:24.151Z,38.52
2023-02-23T22:57:30.181Z,38.36
2023-02-23T23:02:37.241Z,38.23
2023-02-23T23:07:43.454Z,38.31
2023-02-23T23:12:50.092Z,38.42
2023-02-23T23:17:55.300Z,38.75
2023-02-23T23:23:00.454Z,38.31
2023-02-23T23:28:06.200Z,37.59
2023-02-23T23:33:13.054Z,38.28
2023-02-23T23:38:18.699Z,37.83
2023-02-23T23:43:24.153Z,37.54
2023-02-23T23:48:29.644Z,38.04
2023-02-23T23:53:35.701Z,37.85
2023-02-23T23:58:40.909Z,37.59
